Time;durP1;ratioP1;P1;durP2;ratioP2;P2;SDS_P1;SDS_P2;PMS_P1;PMS_P2;Temp;Humidity;BMP_temperature;BMP_pressure;BME280_temperature;BME280_humidity;BME280_pressure;Samples;Min_cycle;Max_cycle;Signal;HPM_P1;HPM_P2
2023/11/09 00:00:25;;;;;;;0.40;0.20;;;21.40;46.10;;;;;;5074896;28;20371;-57
2023/11/09 00:02:51;;;;;;;0.43;0.20;;;21.40;46.10;;;;;;5069946;28;20039;-58
2023/11/09 00:05:17;;;;;;;0.20;0.10;;;21.40;46.20;;;;;;5070640;28;20747;-58
2023/11/09 00:07:43;;;;;;;0.20;0.20;;;21.30;46.10;;;;;;5067056;28;20036;-55
2023/11/09 00:10:10;;;;;;;0.28;0.20;;;21.30;46.20;;;;;;5075699;28;20127;-54
2023/11/09 00:12:36;;;;;;;0.10;0.10;;;21.30;46.20;;;;;;5072524;28;20044;-58
2023/11/09 00:15:03;;;;;;;0.85;0.20;;;21.30;46.30;;;;;;5072039;28;20494;-56
2023/11/09 00:17:29;;;;;;;0.20;0.10;;;21.30;46.30;;;;;;5075062;28;20122;-53
2023/11/09 00:19:54;;;;;;;0.10;0.10;;;21.30;46.30;;;;;;5069795;28;20542;-56
2023/11/09 00:22:20;;;;;;;0.10;0.10;;;21.30;46.40;;;;;;5068217;28;20036;-57
2023/11/09 00:24:47;;;;;;;0.50;0.28;;;21.20;46.40;;;;;;5065150;28;20035;-54
2023/11/09 00:27:20;;;;;;;0.40;0.20;;;21.20;46.40;;;;;;5072696;28;20036;-57
2023/11/09 00:29:47;;;;;;;0.10;0.10;;;21.20;46.40;;;;;;5070406;28;20048;-55
2023/11/09 00:32:16;;;;;;;0.30;0.20;;;21.20;46.40;;;;;;5075431;28;20345;-57
2023/11/09 00:34:43;;;;;;;0.52;0.10;;;21.20;46.40;;;;;;5065471;28;20064;-55
2023/11/09 00:37:09;;;;;;;0.20;0.20;;;21.20;46.40;;;;;;5070580;28;20060;-57
2023/11/09 00:39:35;;;;;;;0.20;0.20;;;21.20;46.40;;;;;;5051680;28;20476;-57
2023/11/09 00:42:01;;;;;;;0.20;0.20;;;21.20;46.40;;;;;;5067528;28;20393;-56
2023/11/09 00:44:26;;;;;;;0.20;0.10;;;21.10;46.40;;;;;;5052561;28;20024;-56
2023/11/09 00:46:52;;;;;;;0.10;0.10;;;21.20;46.50;;;;;;5050321;28;20484;-57
2023/11/09 00:49:18;;;;;;;0.15;0.10;;;21.10;46.60;;;;;;5073525;28;20431;-56
2023/11/09 00:51:44;;;;;;;0.20;0.10;;;21.10;46.60;;;;;;5071599;28;20047;-54
2023/11/09 00:54:10;;;;;;;0.40;0.10;;;21.10;46.70;;;;;;5050059;28;20021;-55
2023/11/09 00:56:35;;;;;;;0.68;0.10;;;21.10;46.60;;;;;;5056005;28;20028;-54
2023/11/09 00:59:03;;;;;;;0.47;0.17;;;21.10;46.70;;;;;;5064755;28;20082;-55
2023/11/09 01:01:29;;;;;;;0.20;0.20;;;21.10;46.70;;;;;;5067962;28;20028;-53
2023/11/09 01:03:56;;;;;;;0.30;0.20;;;21.10;46.70;;;;;;5069774;28;20354;-58
2023/11/09 01:06:22;;;;;;;0.25;0.10;;;21.10;46.80;;;;;;5053463;28;20495;-52
2023/11/09 01:08:48;;;;;;;0.10;0.10;;;21.10;46.80;;;;;;5050642;28;20123;-57
2023/11/09 01:11:22;;;;;;;0.45;0.20;;;21.10;46.80;;;;;;5062076;28;20048;-56
2023/11/09 01:13:48;;;;;;;0.20;0.10;;;21.10;46.90;;;;;;5074014;28;20032;-56
2023/11/09 01:16:14;;;;;;;0.10;0.10;;;21.10;46.90;;;;;;5069212;28;20036;-57
2023/11/09 01:18:40;;;;;;;0.15;0.10;;;21.00;46.90;;;;;;5068294;28;20498;-59
2023/11/09 01:21:06;;;;;;;0.20;0.20;;;21.00;46.90;;;;;;5066813;28;20039;-56
2023/11/09 01:23:32;;;;;;;0.47;0.20;;;21.00;46.90;;;;;;5060831;28;20017;-54
2023/11/09 01:25:57;;;;;;;0.13;0.10;;;21.00;47.00;;;;;;5053661;28;20020;-54
2023/11/09 01:28:23;;;;;;;0.10;0.10;;;21.00;47.00;;;;;;5065009;28;20047;-55
2023/11/09 01:30:49;;;;;;;0.47;0.10;;;21.00;47.00;;;;;;5069439;28;20517;-56
2023/11/09 01:33:15;;;;;;;0.20;0.10;;;21.00;47.00;;;;;;5065679;28;20029;-55
2023/11/09 01:35:41;;;;;;;0.10;0.10;;;21.00;47.10;;;;;;5079775;28;20044;-56
2023/11/09 01:38:07;;;;;;;0.10;0.10;;;21.00;47.10;;;;;;5050467;28;20086;-56
2023/11/09 01:40:34;;;;;;;0.20;0.10;;;20.90;47.10;;;;;;5067982;28;20028;-56
2023/11/09 01:43:00;;;;;;;0.43;0.10;;;21.00;47.20;;;;;;5066419;28;20119;-54
2023/11/09 01:45:27;;;;;;;0.25;0.17;;;20.90;47.10;;;;;;5069407;28;20079;-54
2023/11/09 01:47:54;;;;;;;0.50;0.20;;;20.90;47.20;;;;;;5069416;28;20086;-54
2023/11/09 01:50:20;;;;;;;0.10;0.10;;;20.90;47.20;;;;;;5066597;28;20048;-52
2023/11/09 01:52:46;;;;;;;0.20;0.10;;;20.90;47.20;;;;;;5052755;28;20437;-56
2023/11/09 01:55:13;;;;;;;0.20;0.15;;;20.90;47.20;;;;;;5068430;28;20106;-57
2023/11/09 01:57:40;;;;;;;0.10;0.10;;;20.90;47.20;;;;;;5080176;28;20032;-56
2023/11/09 02:00:09;;;;;;;0.30;0.10;;;20.90;47.30;;;;;;5053964;28;20134;-54
2023/11/09 02:02:40;;;;;;;0.22;0.10;;;20.90;47.30;;;;;;5072401;28;20051;-57
2023/11/09 02:05:10;;;;;;;0.00;0.00;;;20.90;47.30;;;;;;5046973;28;20532;-54
2023/11/09 02:07:37;;;;;;;0.10;0.10;;;20.90;47.40;;;;;;5054814;28;20322;-54
2023/11/09 02:10:03;;;;;;;0.55;0.10;;;20.90;47.40;;;;;;5068386;28;20062;-54
2023/11/09 02:12:29;;;;;;;0.10;0.10;;;20.90;47.40;;;;;;5068103;28;20025;-54
2023/11/09 02:14:55;;;;;;;0.10;0.10;;;20.90;47.40;;;;;;5065516;28;20103;-55
2023/11/09 02:17:21;;;;;;;0.38;0.10;;;20.90;47.40;;;;;;5048828;28;20439;-56
2023/11/09 02:19:48;;;;;;;0.40;0.10;;;20.90;47.50;;;;;;5044064;28;20047;-56
2023/11/09 02:22:15;;;;;;;0.10;0.10;;;20.80;47.40;;;;;;5068840;28;20017;-56
2023/11/09 02:24:44;;;;;;;0.10;0.10;;;20.80;47.40;;;;;;5049806;28;20024;-57
2023/11/09 02:27:10;;;;;;;0.10;0.10;;;20.80;47.50;;;;;;5047017;28;20044;-56
2023/11/09 02:29:39;;;;;;;0.10;0.10;;;20.80;47.50;;;;;;5068368;28;20056;-53
2023/11/09 02:32:06;;;;;;;0.20;0.10;;;20.80;47.50;;;;;;5054004;28;20566;-54
2023/11/09 02:34:37;;;;;;;0.10;0.10;;;20.80;47.50;;;;;;5070256;28;20056;-55
2023/11/09 02:37:06;;;;;;;0.10;0.10;;;20.80;47.50;;;;;;5066938;28;20016;-54
2023/11/09 02:39:31;;;;;;;0.00;0.00;;;20.80;47.60;;;;;;5049571;28;20099;-55
2023/11/09 02:41:57;;;;;;;0.30;0.10;;;20.80;47.60;;;;;;5052756;28;20063;-56
2023/11/09 02:44:24;;;;;;;0.15;0.10;;;20.80;47.60;;;;;;5048529;28;20036;-57
2023/11/09 02:46:50;;;;;;;0.10;0.10;;;20.70;47.60;;;;;;5042751;28;20033;-54
2023/11/09 02:49:15;;;;;;;0.10;0.10;;;20.70;47.60;;;;;;5049993;28;20348;-55
2023/11/09 02:51:41;;;;;;;0.20;0.10;;;20.70;47.60;;;;;;5066348;28;20451;-56
2023/11/09 02:54:07;;;;;;;0.13;0.10;;;20.70;47.70;;;;;;5054524;28;20064;-56
2023/11/09 02:56:33;;;;;;;0.20;0.10;;;20.70;47.70;;;;;;5046027;28;20036;-57
2023/11/09 02:58:59;;;;;;;0.10;0.10;;;20.70;47.70;;;;;;5070760;28;20074;-57
2023/11/09 03:01:25;;;;;;;0.10;0.10;;;20.70;47.80;;;;;;5066840;28;20028;-56
2023/11/09 03:03:54;;;;;;;0.40;0.10;;;20.70;47.80;;;;;;5060489;28;20020;-57
2023/11/09 03:06:21;;;;;;;0.40;0.10;;;20.70;47.80;;;;;;5069642;28;20029;-56
2023/11/09 03:08:47;;;;;;;0.00;0.00;;;20.70;47.80;;;;;;5072683;28;20028;-57
2023/11/09 03:11:18;;;;;;;0.10;0.10;;;20.70;47.80;;;;;;5072102;28;20037;-55
2023/11/09 03:13:44;;;;;;;0.10;0.10;;;20.70;47.90;;;;;;5057227;28;20448;-57
2023/11/09 03:16:10;;;;;;;0.13;0.10;;;20.70;47.90;;;;;;5072274;28;20058;-57
2023/11/09 03:18:36;;;;;;;0.10;0.10;;;20.70;47.90;;;;;;5073757;28;20112;-55
2023/11/09 03:21:02;;;;;;;0.10;0.10;;;20.60;47.90;;;;;;5071790;28;20032;-56
2023/11/09 03:23:28;;;;;;;0.10;0.10;;;20.60;47.90;;;;;;5070220;28;20460;-54
2023/11/09 03:25:54;;;;;;;0.10;0.10;;;20.70;48.00;;;;;;5075244;28;20392;-55
2023/11/09 03:28:20;;;;;;;0.52;0.10;;;20.60;47.90;;;;;;5078482;28;20107;-54
2023/11/09 03:30:46;;;;;;;0.08;0.08;;;20.70;48.00;;;;;;5069890;28;20413;-55
2023/11/09 03:33:12;;;;;;;2.25;0.13;;;20.70;48.10;;;;;;5064079;28;20021;-57
2023/11/09 03:35:38;;;;;;;0.43;0.43;;;20.70;48.10;;;;;;5065475;28;20044;-56
2023/11/09 03:38:04;;;;;;;0.10;0.10;;;20.60;48.10;;;;;;5072865;28;20107;-55
2023/11/09 03:40:30;;;;;;;0.10;0.10;;;20.60;48.10;;;;;;5066631;28;20417;-55
2023/11/09 03:42:57;;;;;;;0.00;0.00;;;20.70;48.20;;;;;;5047199;28;20041;-55
2023/11/09 03:45:23;;;;;;;0.35;0.10;;;20.60;48.10;;;;;;5071463;28;20349;-54
2023/11/09 03:47:50;;;;;;;0.20;0.13;;;20.60;48.10;;;;;;5064046;28;20082;-56
2023/11/09 03:50:16;;;;;;;0.63;0.20;;;20.60;48.20;;;;;;5075702;28;20046;-55
2023/11/09 03:52:41;;;;;;;0.10;0.10;;;20.60;48.20;;;;;;5070395;28;20355;-54
2023/11/09 03:55:08;;;;;;;0.13;0.00;;;20.60;48.30;;;;;;5067684;28;20038;-57
2023/11/09 03:57:37;;;;;;;0.10;0.10;;;20.60;48.30;;;;;;5073828;28;20047;-57
2023/11/09 04:00:08;;;;;;;0.10;0.10;;;20.60;48.30;;;;;;5075604;28;20033;-57
2023/11/09 04:02:39;;;;;;;0.28;0.10;;;20.60;48.30;;;;;;5070198;28;20375;-57
2023/11/09 04:05:09;;;;;;;0.10;0.10;;;20.50;48.30;;;;;;5067388;28;20335;-57
2023/11/09 04:07:44;;;;;;;0.20;0.10;;;20.60;48.40;;;;;;5070749;28;20043;-54
2023/11/09 04:10:12;;;;;;;0.05;0.03;;;20.50;48.30;;;;;;5056608;28;20063;-54
2023/11/09 04:12:38;;;;;;;0.10;0.10;;;20.60;48.40;;;;;;5063373;28;20513;-54
2023/11/09 04:15:05;;;;;;;0.00;0.00;;;20.60;48.40;;;;;;5062123;28;20435;-55
2023/11/09 04:17:34;;;;;;;0.13;0.05;;;20.60;48.50;;;;;;5066109;28;20029;-56
2023/11/09 04:20:00;;;;;;;0.10;0.10;;;20.50;48.50;;;;;;5072691;28;20028;-55
2023/11/09 04:22:26;;;;;;;0.40;0.10;;;20.50;48.50;;;;;;5070403;28;20033;-57
2023/11/09 04:24:52;;;;;;;0.40;0.10;;;20.50;48.60;;;;;;5067155;28;20082;-54
2023/11/09 04:27:18;;;;;;;0.38;0.10;;;20.50;48.60;;;;;;5069407;28;20039;-55
2023/11/09 04:29:44;;;;;;;0.28;0.13;;;20.50;48.60;;;;;;5067930;28;20032;-56
2023/11/09 04:32:10;;;;;;;0.10;0.10;;;20.50;48.60;;;;;;5068265;28;20021;-56
2023/11/09 04:34:36;;;;;;;0.10;0.10;;;20.50;48.70;;;;;;5058711;28;20029;-55
2023/11/09 04:37:03;;;;;;;0.20;0.10;;;20.50;48.70;;;;;;5071741;28;20028;-55
2023/11/09 04:39:29;;;;;;;0.20;0.20;;;20.50;48.70;;;;;;5068897;28;20109;-57
2023/11/09 04:41:58;;;;;;;0.15;0.10;;;20.50;48.70;;;;;;5072417;28;20032;-57
2023/11/09 04:44:26;;;;;;;0.05;0.00;;;20.50;48.80;;;;;;5068639;28;20020;-56
2023/11/09 04:46:55;;;;;;;0.15;0.15;;;20.50;48.80;;;;;;5071714;28;20475;-55
2023/11/09 04:49:24;;;;;;;0.10;0.10;;;20.40;48.80;;;;;;5070222;28;20041;-56
2023/11/09 04:51:51;;;;;;;0.30;0.10;;;20.50;48.90;;;;;;5068306;28;20115;-57
2023/11/09 04:54:19;;;;;;;0.10;0.10;;;20.50;48.90;;;;;;5067536;28;20099;-56
2023/11/09 04:57:03;;;;;;;0.10;0.10;;;20.50;48.90;;;;;;5076963;28;20114;-54
2023/11/09 05:07:32;;;;;;;0.30;0.13;;;20.40;49.00;;;;;;5071307;28;20040;-57
2023/11/09 05:10:00;;;;;;;0.55;0.28;;;20.40;49.00;;;;;;5068493;28;20035;-56
2023/11/09 05:12:26;;;;;;;0.57;0.20;;;20.40;49.10;;;;;;5066814;28;20032;-55
2023/11/09 05:14:53;;;;;;;0.25;0.15;;;20.40;49.10;;;;;;5063019;28;20379;-55
2023/11/09 05:17:19;;;;;;;0.28;0.10;;;20.40;49.10;;;;;;5071517;28;20359;-56
2023/11/09 05:19:46;;;;;;;0.10;0.10;;;20.40;49.20;;;;;;5067726;28;20031;-54
2023/11/09 05:22:12;;;;;;;1.30;0.40;;;20.40;49.20;;;;;;5061910;28;20040;-56
2023/11/09 05:24:44;;;;;;;0.40;0.17;;;20.40;49.30;;;;;;5072581;28;20032;-57
2023/11/09 05:27:10;;;;;;;0.25;0.20;;;20.40;49.30;;;;;;5066051;28;20052;-57
2023/11/09 05:29:36;;;;;;;0.28;0.20;;;20.40;49.30;;;;;;5066650;28;20020;-53
2023/11/09 05:32:06;;;;;;;0.10;0.10;;;20.40;49.40;;;;;;5068396;28;20036;-54
2023/11/09 05:34:36;;;;;;;0.50;0.15;;;20.40;49.40;;;;;;5057800;28;20035;-55
2023/11/09 05:37:03;;;;;;;0.30;0.20;;;20.40;49.40;;;;;;5068642;28;20048;-58
2023/11/09 05:39:33;;;;;;;0.28;0.28;;;20.40;49.40;;;;;;5073842;28;20032;-56
2023/11/09 05:41:59;;;;;;;0.15;0.10;;;20.30;49.40;;;;;;5051897;28;20025;-54
2023/11/09 05:44:26;;;;;;;1.08;0.22;;;20.40;49.50;;;;;;5073309;28;20427;-56
2023/11/09 05:46:54;;;;;;;0.20;0.20;;;20.40;49.50;;;;;;5072825;28;20023;-56
2023/11/09 05:49:21;;;;;;;0.15;0.10;;;20.40;49.60;;;;;;5058741;28;20017;-55
2023/11/09 05:51:47;;;;;;;0.10;0.10;;;20.30;49.50;;;;;;5067294;28;20032;-57
2023/11/09 05:54:14;;;;;;;0.20;0.10;;;20.40;49.50;;;;;;5066088;28;20024;-54
2023/11/09 05:56:42;;;;;;;0.32;0.20;;;20.30;49.40;;;;;;5060652;28;20028;-55
2023/11/09 05:59:12;;;;;;;0.32;0.20;;;20.30;49.40;;;;;;5068641;28;20021;-55
2023/11/09 06:01:39;;;;;;;0.45;0.20;;;20.30;49.40;;;;;;5072591;28;20036;-54
2023/11/09 06:04:05;;;;;;;0.82;0.20;;;20.30;49.40;;;;;;5074311;28;20032;-55
2023/11/09 06:06:31;;;;;;;0.57;0.20;;;20.30;49.30;;;;;;5061032;28;20040;-56
2023/11/09 06:08:58;;;;;;;0.20;0.10;;;20.30;49.30;;;;;;5066463;28;20033;-57
2023/11/09 06:11:25;;;;;;;0.20;0.10;;;20.30;49.30;;;;;;5063044;28;20063;-56
2023/11/09 06:13:52;;;;;;;0.15;0.15;;;20.30;49.30;;;;;;5069554;28;20032;-54
2023/11/09 06:16:19;;;;;;;0.25;0.10;;;20.30;49.30;;;;;;5073090;28;20024;-56
2023/11/09 06:18:46;;;;;;;0.30;0.10;;;20.30;49.30;;;;;;5069986;28;20504;-55
2023/11/09 06:21:12;;;;;;;0.20;0.10;;;20.30;49.30;;;;;;5053970;28;20387;-57
2023/11/09 06:23:37;;;;;;;0.10;0.10;;;20.30;49.30;;;;;;5076062;28;20470;-57
2023/11/09 06:26:05;;;;;;;0.30;0.30;;;20.30;49.30;;;;;;5071083;28;20029;-57
2023/11/09 06:28:31;;;;;;;0.13;0.10;;;20.30;49.30;;;;;;5071991;28;20103;-56
2023/11/09 06:30:58;;;;;;;0.50;0.30;;;20.30;49.30;;;;;;5072280;28;20753;-58
2023/11/09 06:33:23;;;;;;;0.38;0.20;;;20.30;49.30;;;;;;5070623;28;20111;-56
2023/11/09 06:35:49;;;;;;;0.70;0.20;;;20.30;49.30;;;;;;5071632;28;20135;-54
2023/11/09 06:38:19;;;;;;;0.30;0.20;;;20.30;49.20;;;;;;5079636;28;20024;-56
2023/11/09 06:40:48;;;;;;;0.30;0.28;;;20.30;49.20;;;;;;5078722;28;20028;-55
2023/11/09 06:43:15;;;;;;;0.40;0.17;;;20.30;49.20;;;;;;5075107;28;20137;-56
2023/11/09 06:45:41;;;;;;;0.25;0.20;;;20.30;49.10;;;;;;5090176;28;20031;-53
2023/11/09 06:48:08;;;;;;;1.13;0.20;;;20.20;49.10;;;;;;5082978;28;20036;-58
2023/11/09 06:50:33;;;;;;;0.60;0.28;;;20.20;49.10;;;;;;5072379;28;20044;-59
2023/11/09 06:53:00;;;;;;;0.30;0.30;;;20.20;49.00;;;;;;5077753;28;20039;-55
2023/11/09 06:55:28;;;;;;;0.50;0.20;;;20.20;49.00;;;;;;5076370;28;20047;-57
2023/11/09 06:57:54;;;;;;;0.40;0.22;;;20.20;49.00;;;;;;5071214;28;20041;-59
2023/11/09 07:00:24;;;;;;;0.60;0.28;;;20.20;49.00;;;;;;5071805;28;20035;-58
2023/11/09 07:02:51;;;;;;;1.13;0.32;;;20.20;48.90;;;;;;5078871;28;20051;-58
2023/11/09 07:05:17;;;;;;;1.30;0.25;;;20.20;48.90;;;;;;5079145;28;20036;-57
2023/11/09 07:07:43;;;;;;;0.57;0.40;;;20.20;48.90;;;;;;5083240;28;20036;-56
2023/11/09 07:10:09;;;;;;;0.88;0.40;;;20.20;48.90;;;;;;5086952;28;20043;-58
2023/11/09 07:12:36;;;;;;;0.30;0.17;;;20.20;48.90;;;;;;5085978;28;20586;-58
2023/11/09 07:15:03;;;;;;;0.90;0.20;;;20.20;48.90;;;;;;5087979;28;20044;-57
2023/11/09 07:17:29;;;;;;;0.20;0.20;;;20.20;48.90;;;;;;5086134;28;20031;-56
2023/11/09 07:19:55;;;;;;;0.80;0.40;;;20.20;49.50;;;;;;5078097;28;20028;-52
2023/11/09 07:22:21;;;;;;;0.63;0.40;;;20.20;48.90;;;;;;5078549;28;20039;-58
2023/11/09 07:24:56;;;;;;;0.63;0.20;;;20.20;48.90;;;;;;5077677;28;20029;-55
2023/11/09 07:27:23;;;;;;;2.17;0.52;;;20.20;48.90;;;;;;5077086;28;20032;-56
2023/11/09 07:29:50;;;;;;;0.52;0.38;;;20.20;48.90;;;;;;5078582;28;20114;-58
2023/11/09 07:32:16;;;;;;;0.50;0.40;;;20.10;48.80;;;;;;5079661;28;20047;-58
2023/11/09 07:34:42;;;;;;;0.47;0.40;;;20.20;48.90;;;;;;5074797;28;20059;-55
2023/11/09 07:37:11;;;;;;;0.65;0.20;;;20.20;48.90;;;;;;5087809;28;20024;-57
2023/11/09 07:39:38;;;;;;;1.00;0.30;;;20.10;48.90;;;;;;5087656;28;20027;-58
2023/11/09 07:42:05;;;;;;;1.77;0.28;;;20.20;49.00;;;;;;5086920;28;20087;-57
2023/11/09 07:44:32;;;;;;;1.10;0.40;;;20.20;49.00;;;;;;5086872;28;20032;-57
2023/11/09 07:46:57;;;;;;;1.13;0.50;;;20.20;49.00;;;;;;5086726;28;20502;-57
2023/11/09 07:49:24;;;;;;;0.80;0.32;;;20.10;48.90;;;;;;5087592;28;20066;-57
2023/11/09 07:51:53;;;;;;;0.10;0.10;;;20.20;48.90;;;;;;5088067;28;20064;-58
2023/11/09 07:54:21;;;;;;;0.50;0.30;;;20.10;48.80;;;;;;5091484;28;20040;-59
2023/11/09 07:56:50;;;;;;;0.43;0.20;;;20.10;48.90;;;;;;5085396;28;20039;-58
2023/11/09 07:59:16;;;;;;;0.47;0.30;;;20.20;48.90;;;;;;5091998;28;20024;-56
2023/11/09 08:01:43;;;;;;;1.58;0.50;;;20.10;48.80;;;;;;5091843;28;20046;-56
2023/11/09 08:04:09;;;;;;;0.77;0.30;;;20.20;48.80;;;;;;5091867;28;20036;-56
2023/11/09 08:06:37;;;;;;;1.05;0.30;;;20.20;48.80;;;;;;5090218;28;20024;-59
2023/11/09 08:09:07;;;;;;;0.50;0.25;;;20.10;48.70;;;;;;5073215;28;20054;-57
2023/11/09 08:11:35;;;;;;;1.65;0.52;;;20.20;48.80;;;;;;5077789;28;20107;-58
2023/11/09 08:14:01;;;;;;;1.27;0.40;;;20.20;48.80;;;;;;5078245;28;20094;-54
2023/11/09 08:16:27;;;;;;;0.50;0.40;;;20.20;48.70;;;;;;5088928;28;20036;-57
2023/11/09 08:18:55;;;;;;;1.10;0.32;;;20.20;48.80;;;;;;5085375;28;20040;-58
2023/11/09 08:21:24;;;;;;;0.70;0.40;;;20.20;48.80;;;;;;5089535;28;20088;-58
2023/11/09 08:23:51;;;;;;;0.47;0.30;;;20.20;48.80;;;;;;5057652;28;20040;-58
2023/11/09 08:26:17;;;;;;;1.35;0.45;;;20.20;48.80;;;;;;5097200;28;20036;-58
2023/11/09 08:28:43;;;;;;;0.73;0.47;;;20.20;48.80;;;;;;5081445;28;20039;-58
2023/11/09 08:31:09;;;;;;;2.05;1.00;;;20.20;48.80;;;;;;5077439;28;20060;-57
2023/11/09 08:33:35;;;;;;;1.58;0.52;;;20.20;48.80;;;;;;5078163;28;20032;-56
2023/11/09 08:36:04;;;;;;;0.80;0.60;;;20.20;48.80;;;;;;5080102;28;20068;-57
2023/11/09 08:38:34;;;;;;;1.40;0.70;;;20.20;48.80;;;;;;5084520;28;20024;-57
2023/11/09 08:41:05;;;;;;;1.20;0.45;;;20.20;48.90;;;;;;5097851;28;20036;-58
2023/11/09 08:43:37;;;;;;;1.55;0.80;;;20.20;48.90;;;;;;5084696;28;20032;-57
2023/11/09 08:46:03;;;;;;;1.67;0.65;;;20.20;48.80;;;;;;5076851;28;20438;-57
2023/11/09 08:48:32;;;;;;;1.67;0.70;;;20.20;48.90;;;;;;5076443;28;20032;-57
2023/11/09 08:51:00;;;;;;;0.85;0.47;;;20.20;48.90;;;;;;5076676;28;20059;-56
2023/11/09 08:53:32;;;;;;;1.50;0.52;;;20.20;48.90;;;;;;5091782;28;20043;-56
2023/11/09 08:56:01;;;;;;;0.90;0.43;;;20.20;48.90;;;;;;5097037;28;20028;-57
2023/11/09 08:58:29;;;;;;;1.17;0.50;;;20.20;48.80;;;;;;5097001;28;20038;-57
2023/11/09 09:01:01;;;;;;;1.42;0.68;;;20.20;48.80;;;;;;5097122;28;20039;-57
2023/11/09 09:03:27;;;;;;;1.48;0.65;;;20.20;48.80;;;;;;5096688;28;20043;-58
2023/11/09 09:05:55;;;;;;;1.75;0.93;;;20.20;48.80;;;;;;5096525;28;20039;-54
2023/11/09 09:08:26;;;;;;;1.33;0.70;;;20.20;48.80;;;;;;5096585;28;20036;-57
2023/11/09 09:10:55;;;;;;;1.50;0.63;;;20.20;48.80;;;;;;5077232;28;20068;-57
2023/11/09 09:13:26;;;;;;;0.50;0.50;;;20.20;48.80;;;;;;5076514;28;20033;-55
2023/11/09 09:15:53;;;;;;;1.00;0.63;;;20.20;48.80;;;;;;5076017;28;20090;-54
2023/11/09 09:18:24;;;;;;;1.52;0.68;;;20.20;48.80;;;;;;5075695;28;20483;-54
2023/11/09 09:20:50;;;;;;;0.90;0.55;;;20.20;48.80;;;;;;5076087;28;20028;-56
2023/11/09 09:23:17;;;;;;;1.50;0.60;;;20.20;48.70;;;;;;5076286;28;20033;-57
2023/11/09 09:25:44;;;;;;;1.80;0.70;;;20.20;48.70;;;;;;5076648;28;20119;-58
2023/11/09 09:28:10;;;;;;;1.45;0.68;;;20.20;48.70;;;;;;5075556;28;20519;-56
2023/11/09 09:30:36;;;;;;;0.98;0.60;;;20.20;48.70;;;;;;5076255;28;20071;-54
2023/11/09 09:33:03;;;;;;;1.63;0.55;;;20.20;48.70;;;;;;5095171;28;20043;-56
2023/11/09 09:35:30;;;;;;;1.13;0.45;;;20.20;48.60;;;;;;5096034;28;20048;-56
2023/11/09 09:37:59;;;;;;;1.50;0.60;;;20.20;48.60;;;;;;5095962;28;20110;-56
2023/11/09 09:40:29;;;;;;;1.23;0.68;;;20.30;48.60;;;;;;5091210;28;20032;-57
2023/11/09 09:42:56;;;;;;;1.27;0.60;;;20.20;48.60;;;;;;5088880;28;20028;-57
2023/11/09 09:45:26;;;;;;;2.08;0.82;;;20.20;48.60;;;;;;5087788;28;20115;-56
2023/11/09 09:47:54;;;;;;;2.00;0.68;;;20.20;48.50;;;;;;5079558;28;20450;-57
2023/11/09 09:50:23;;;;;;;2.25;0.85;;;20.20;48.50;;;;;;5085793;28;20078;-56
2023/11/09 09:52:57;;;;;;;1.48;0.70;;;20.20;48.50;;;;;;5081874;28;20447;-57
2023/11/09 09:55:24;;;;;;;2.65;0.80;;;20.20;48.50;;;;;;5072078;28;20035;-57
2023/11/09 09:57:51;;;;;;;2.00;0.63;;;20.30;48.50;;;;;;5075240;28;20036;-56
2023/11/09 10:00:27;;;;;;;2.13;0.82;;;20.30;48.50;;;;;;5076859;28;20047;-59
2023/11/09 10:03:01;;;;;;;1.98;0.80;;;20.30;48.50;;;;;;5071418;28;20048;-57
2023/11/09 10:05:33;;;;;;;1.58;0.80;;;20.30;48.40;;;;;;5070176;28;20025;-56
2023/11/09 10:08:20;;;;;;;2.67;1.20;;;20.30;48.40;;;;;;5053878;28;20028;-58
2023/11/09 10:10:52;;;;;;;2.30;0.88;;;20.30;49.00;;;;;;5071801;28;20071;-57
2023/11/09 10:13:20;;;;;;;1.90;1.00;;;20.30;48.40;;;;;;5071368;28;20029;-58
2023/11/09 10:15:53;;;;;;;2.63;1.05;;;20.30;48.30;;;;;;5079935;28;20043;-59
2023/11/09 10:18:24;;;;;;;2.35;1.05;;;20.30;48.30;;;;;;5075782;28;20032;-59
2023/11/09 10:20:55;;;;;;;2.65;1.23;;;20.30;48.30;;;;;;5086507;28;20024;-54
2023/11/09 10:23:22;;;;;;;1.55;0.88;;;20.30;48.30;;;;;;5078985;28;20065;-58
2023/11/09 10:25:48;;;;;;;3.53;1.15;;;20.30;48.30;;;;;;5085075;28;20085;-58
2023/11/09 10:28:14;;;;;;;4.95;1.55;;;20.30;48.30;;;;;;5082392;28;20024;-59
2023/11/09 10:30:44;;;;;;;3.42;1.20;;;20.40;48.30;;;;;;5088119;28;20043;-55
2023/11/09 10:33:12;;;;;;;3.10;1.20;;;20.40;48.20;;;;;;5084809;28;20033;-56
2023/11/09 10:35:39;;;;;;;3.80;1.40;;;20.40;48.30;;;;;;5085762;28;20112;-56
2023/11/09 10:38:24;;;;;;;2.35;1.00;;;20.40;48.20;;;;;;5069348;28;20036;-59
2023/11/09 10:40:57;;;;;;;2.08;1.02;;;20.40;48.20;;;;;;5078090;28;20439;-56
2023/11/09 10:43:24;;;;;;;2.25;1.40;;;20.50;48.20;;;;;;5086090;28;20363;-56
2023/11/09 10:45:52;;;;;;;2.97;1.23;;;20.50;48.20;;;;;;5088049;28;20036;-56
2023/11/09 10:48:18;;;;;;;1.88;0.98;;;20.50;48.10;;;;;;5084927;28;20039;-57
2023/11/09 10:50:47;;;;;;;3.10;1.13;;;20.50;48.10;;;;;;5070952;28;20040;-55
2023/11/09 10:53:20;;;;;;;2.58;0.90;;;20.50;48.10;;;;;;5078371;28;20028;-55
2023/11/09 10:55:53;;;;;;;3.00;0.90;;;20.50;48.00;;;;;;5074901;28;20028;-58
2023/11/09 10:58:21;;;;;;;2.43;1.00;;;20.50;48.00;;;;;;5072617;28;20047;-59
2023/11/09 11:00:51;;;;;;;3.63;1.10;;;20.50;47.90;;;;;;5068780;28;20032;-55
2023/11/09 11:03:29;;;;;;;2.13;1.00;;;20.50;47.80;;;;;;5074594;28;20028;-57
2023/11/09 11:06:00;;;;;;;2.63;1.25;;;20.50;47.80;;;;;;5070861;28;20033;-56
2023/11/09 11:08:27;;;;;;;3.17;0.93;;;20.50;47.70;;;;;;5071917;28;20028;-53
2023/11/09 11:10:54;;;;;;;3.35;1.00;;;20.60;47.80;;;;;;5070101;28;20503;-55
2023/11/09 11:13:20;;;;;;;2.65;0.98;;;20.60;47.70;;;;;;5080967;28;20081;-56
2023/11/09 11:16:05;;;;;;;2.75;1.00;;;20.60;47.70;;;;;;5082056;28;20024;-57
2023/11/09 11:19:06;;;;;;;3.10;1.20;;;20.60;47.60;;;;;;5074149;28;20082;-56
2023/11/09 11:22:00;;;;;;;3.10;1.30;;;20.60;47.50;;;;;;5070506;28;20063;-58
2023/11/09 11:24:59;;;;;;;2.08;1.00;;;20.60;47.50;;;;;;5069580;28;20021;-57
2023/11/09 11:27:56;;;;;;;3.05;0.73;;;20.60;47.30;;;;;;5073803;28;20166;-55
2023/11/09 11:30:29;;;;;;;1.25;0.70;;;20.60;47.20;;;;;;5074494;28;20028;-57
2023/11/09 11:32:59;;;;;;;3.67;1.00;;;20.60;47.20;;;;;;5076638;28;20474;-57
2023/11/09 11:35:46;;;;;;;2.40;1.00;;;20.60;47.00;;;;;;5076053;28;20083;-55
2023/11/09 11:38:21;;;;;;;3.55;1.05;;;20.60;46.90;;;;;;5079417;28;20036;-56
2023/11/09 11:41:00;;;;;;;2.92;1.15;;;20.60;46.90;;;;;;5068196;28;20321;-55
2023/11/09 11:43:40;;;;;;;4.18;0.82;;;20.60;46.90;;;;;;5073426;28;20029;-58
2023/11/09 11:46:12;;;;;;;2.55;1.25;;;20.60;46.80;;;;;;5076548;28;20046;-55
2023/11/09 11:48:49;;;;;;;2.35;0.88;;;20.60;46.70;;;;;;5075636;28;20034;-56
2023/11/09 11:51:18;;;;;;;1.77;0.73;;;20.60;46.60;;;;;;5076834;28;20036;-56
2023/11/09 11:53:44;;;;;;;2.05;0.55;;;20.60;46.70;;;;;;5075506;28;20041;-58
2023/11/09 11:56:11;;;;;;;1.75;0.90;;;20.70;46.70;;;;;;5072628;28;20017;-57
2023/11/09 11:58:55;;;;;;;2.25;0.88;;;20.60;46.60;;;;;;5076584;28;20035;-58
2023/11/09 12:01:27;;;;;;;1.33;0.65;;;20.60;46.50;;;;;;5072694;28;20025;-56
2023/11/09 12:04:02;;;;;;;1.60;0.70;;;20.60;46.40;;;;;;5073180;28;20040;-56
2023/11/09 12:06:28;;;;;;;;;;;20.60;46.30;;;;;;5076471;28;20046;-59
2023/11/09 12:08:58;;;;;;;3.80;1.00;;;20.60;46.30;;;;;;5055521;28;19999;-58
2023/11/09 12:11:33;;;;;;;2.85;0.90;;;20.60;46.10;;;;;;5072704;28;20098;-57
2023/11/09 12:14:08;;;;;;;1.77;0.68;;;20.60;46.10;;;;;;5059640;28;20036;-55
2023/11/09 12:16:37;;;;;;;3.05;0.90;;;20.60;45.90;;;;;;5079355;28;20111;-58
2023/11/09 12:19:11;;;;;;;2.28;0.90;;;20.60;45.80;;;;;;5086088;28;20077;-58
2023/11/09 12:21:37;;;;;;;1.80;0.90;;;20.70;45.80;;;;;;5091027;28;20375;-56
2023/11/09 12:24:03;;;;;;;1.95;0.63;;;20.60;45.60;;;;;;5075277;28;20036;-55
2023/11/09 12:26:32;;;;;;;2.25;0.70;;;20.70;45.50;;;;;;5077958;28;20039;-55
2023/11/09 12:29:00;;;;;;;2.47;0.70;;;20.70;45.50;;;;;;5081086;28;20054;-58
2023/11/09 12:31:28;;;;;;;2.45;0.98;;;20.70;45.50;;;;;;5082460;28;20043;-53
2023/11/09 12:34:04;;;;;;;2.03;0.88;;;20.70;45.50;;;;;;5074733;28;20028;-56
2023/11/09 12:36:33;;;;;;;2.35;0.60;;;20.70;45.40;;;;;;5078896;28;20051;-56
2023/11/09 12:38:59;;;;;;;1.90;0.90;;;20.70;45.40;;;;;;5077346;28;20450;-55
2023/11/09 12:41:30;;;;;;;2.35;0.80;;;20.70;45.40;;;;;;5070474;28;20090;-58
2023/11/09 12:43:56;;;;;;;1.85;0.80;;;20.70;45.40;;;;;;5073435;28;20029;-58
2023/11/09 12:46:25;;;;;;;2.80;0.95;;;20.70;45.40;;;;;;5080423;28;20056;-57
2023/11/09 12:48:56;;;;;;;2.10;0.73;;;20.70;45.40;;;;;;5087789;28;20036;-56
2023/11/09 12:51:28;;;;;;;1.67;0.70;;;20.70;45.40;;;;;;5074935;28;20032;-54
2023/11/09 12:53:55;;;;;;;1.42;0.70;;;20.80;45.30;;;;;;5075800;28;20020;-55
2023/11/09 12:56:22;;;;;;;5.03;0.70;;;20.80;45.30;;;;;;5072020;28;20059;-58
2023/11/09 12:58:49;;;;;;;2.35;1.10;;;20.70;45.20;;;;;;5078848;28;20028;-59
2023/11/09 13:01:15;;;;;;;1.85;0.77;;;20.70;45.10;;;;;;5075594;28;20474;-57